sensor_id;sensor_type;location;lat;lon;timestamp;P1;durP1;ratioP1;P2;durP2;ratioP2
42186;SDS011;27858;51.414;0.018;2023-03-01T00:01:03;6.13;;;3.60;;
42186;SDS011;27858;51.414;0.018;2023-03-01T00:03:31;4.07;;;2.83;;
42186;SDS011;27858;51.414;0.018;2023-03-01T00:05:58;4.60;;;3.35;;
42186;SDS011;27858;51.414;0.018;2023-03-01T00:08:26;7.10;;;4.10;;
42186;SDS011;27858;51.414;0.018;2023-03-01T00:11:00;5.10;;;3.55;;
42186;SDS011;27858;51.414;0.018;2023-03-01T00:13:28;5.57;;;3.30;;
42186;SDS011;27858;51.414;0.018;2023-03-01T00:15:54;8.80;;;4.10;;
42186;SDS011;27858;51.414;0.018;2023-03-01T00:18:21;3.50;;;3.20;;
42186;SDS011;27858;51.414;0.018;2023-03-01T00:20:49;7.47;;;3.88;;
42186;SDS011;27858;51.414;0.018;2023-03-01T00:23:17;8.45;;;4.40;;
42186;SDS011;27858;51.414;0.018;2023-03-01T00:25:44;8.70;;;4.07;;
42186;SDS011;27858;51.414;0.018;2023-03-01T00:28:11;4.72;;;3.85;;
42186;SDS011;27858;51.414;0.018;2023-03-01T00:30:38;9.55;;;4.32;;
42186;SDS011;27858;51.414;0.018;2023-03-01T00:33:04;8.65;;;4.40;;
42186;SDS011;27858;51.414;0.018;2023-03-01T00:35:32;8.52;;;4.40;;
42186;SDS011;27858;51.414;0.018;2023-03-01T00:37:59;8.93;;;4.07;;
42186;SDS011;27858;51.414;0.018;2023-03-01T00:40:26;11.35;;;4.72;;
42186;SDS011;27858;51.414;0.018;2023-03-01T00:42:54;7.35;;;5.18;;
42186;SDS011;27858;51.414;0.018;2023-03-01T00:45:21;7.25;;;4.35;;
42186;SDS011;27858;51.414;0.018;2023-03-01T00:47:48;7.65;;;5.03;;
42186;SDS011;27858;51.414;0.018;2023-03-01T00:50:15;8.57;;;4.88;;
42186;SDS011;27858;51.414;0.018;2023-03-01T00:52:42;10.20;;;4.20;;
42186;SDS011;27858;51.414;0.018;2023-03-01T00:55:33;12.52;;;6.05;;
42186;SDS011;27858;51.414;0.018;2023-03-01T00:58:02;8.77;;;5.13;;
42186;SDS011;27858;51.414;0.018;2023-03-01T05:00:47;1.70;;;0.95;;
42186;SDS011;27858;51.414;0.018;2023-03-01T05:03:14;0.88;;;0.60;;
42186;SDS011;27858;51.414;0.018;2023-03-01T05:05:45;2.10;;;0.70;;
42186;SDS011;27858;51.414;0.018;2023-03-01T05:08:14;0.80;;;0.60;;
42186;SDS011;27858;51.414;0.018;2023-03-01T05:10:45;3.50;;;0.80;;
42186;SDS011;27858;51.414;0.018;2023-03-01T05:13:16;3.35;;;1.48;;
42186;SDS011;27858;51.414;0.018;2023-03-01T05:15:48;5.82;;;0.95;;
42186;SDS011;27858;51.414;0.018;2023-03-01T05:20:46;1.20;;;0.57;;
42186;SDS011;27858;51.414;0.018;2023-03-01T05:23:13;0.73;;;0.50;;
42186;SDS011;27858;51.414;0.018;2023-03-01T05:25:40;2.40;;;0.60;;
42186;SDS011;27858;51.414;0.018;2023-03-01T05:28:09;0.70;;;0.70;;
42186;SDS011;27858;51.414;0.018;2023-03-01T05:30:37;2.72;;;0.93;;
42186;SDS011;27858;51.414;0.018;2023-03-01T05:33:07;2.45;;;0.77;;
42186;SDS011;27858;51.414;0.018;2023-03-01T05:35:41;0.60;;;0.60;;
42186;SDS011;27858;51.414;0.018;2023-03-01T05:38:09;1.65;;;0.50;;
42186;SDS011;27858;51.414;0.018;2023-03-01T05:40:40;1.00;;;0.60;;
42186;SDS011;27858;51.414;0.018;2023-03-01T05:43:09;0.73;;;0.50;;
42186;SDS011;27858;51.414;0.018;2023-03-01T05:45:37;4.40;;;1.10;;
42186;SDS011;27858;51.414;0.018;2023-03-01T05:48:06;1.00;;;0.60;;
42186;SDS011;27858;51.414;0.018;2023-03-01T05:50:35;1.30;;;0.77;;
42186;SDS011;27858;51.414;0.018;2023-03-01T05:53:07;1.02;;;0.75;;
42186;SDS011;27858;51.414;0.018;2023-03-01T05:55:37;2.80;;;1.02;;
42186;SDS011;27858;51.414;0.018;2023-03-01T05:58:05;2.88;;;1.30;;
42186;SDS011;27858;51.414;0.018;2023-03-01T06:00:46;1.23;;;0.80;;
42186;SDS011;27858;51.414;0.018;2023-03-01T06:03:14;3.15;;;0.85;;
42186;SDS011;27858;51.414;0.018;2023-03-01T06:05:42;1.33;;;0.80;;
42186;SDS011;27858;51.414;0.018;2023-03-01T06:08:09;4.95;;;1.13;;
42186;SDS011;27858;51.414;0.018;2023-03-01T06:10:37;8.52;;;0.85;;
42186;SDS011;27858;51.414;0.018;2023-03-01T06:13:04;7.82;;;2.05;;
42186;SDS011;27858;51.414;0.018;2023-03-01T06:15:30;2.50;;;0.90;;
42186;SDS011;27858;51.414;0.018;2023-03-01T06:17:57;2.83;;;0.95;;
42186;SDS011;27858;51.414;0.018;2023-03-01T06:20:26;1.92;;;1.30;;
42186;SDS011;27858;51.414;0.018;2023-03-01T06:22:53;0.80;;;0.70;;
42186;SDS011;27858;51.414;0.018;2023-03-01T06:25:21;0.77;;;0.70;;
42186;SDS011;27858;51.414;0.018;2023-03-01T06:27:49;1.10;;;0.65;;
42186;SDS011;27858;51.414;0.018;2023-03-01T06:30:17;3.65;;;1.25;;
42186;SDS011;27858;51.414;0.018;2023-03-01T06:32:45;2.28;;;1.40;;
42186;SDS011;27858;51.414;0.018;2023-03-01T06:35:13;1.98;;;1.10;;
42186;SDS011;27858;51.414;0.018;2023-03-01T06:37:40;2.13;;;0.75;;
42186;SDS011;27858;51.414;0.018;2023-03-01T06:40:08;2.03;;;0.98;;
42186;SDS011;27858;51.414;0.018;2023-03-01T06:42:38;1.50;;;1.20;;
42186;SDS011;27858;51.414;0.018;2023-03-01T06:45:06;1.10;;;1.00;;
42186;SDS011;27858;51.414;0.018;2023-03-01T06:47:35;1.42;;;0.70;;
42186;SDS011;27858;51.414;0.018;2023-03-01T06:50:02;0.90;;;0.80;;
42186;SDS011;27858;51.414;0.018;2023-03-01T06:52:29;1.20;;;0.85;;
42186;SDS011;27858;51.414;0.018;2023-03-01T06:54:57;0.95;;;0.80;;
42186;SDS011;27858;51.414;0.018;2023-03-01T06:57:24;0.70;;;0.63;;
42186;SDS011;27858;51.414;0.018;2023-03-01T06:59:50;2.33;;;1.30;;
42186;SDS011;27858;51.414;0.018;2023-03-01T07:02:17;3.17;;;1.33;;
42186;SDS011;27858;51.414;0.018;2023-03-01T07:04:44;1.55;;;0.90;;
42186;SDS011;27858;51.414;0.018;2023-03-01T07:07:11;2.70;;;1.00;;
42186;SDS011;27858;51.414;0.018;2023-03-01T07:09:38;1.70;;;0.95;;
42186;SDS011;27858;51.414;0.018;2023-03-01T07:12:05;1.42;;;0.95;;
42186;SDS011;27858;51.414;0.018;2023-03-01T07:14:32;1.85;;;1.10;;
42186;SDS011;27858;51.414;0.018;2023-03-01T07:16:59;3.03;;;1.17;;
42186;SDS011;27858;51.414;0.018;2023-03-01T07:19:25;1.77;;;1.15;;
42186;SDS011;27858;51.414;0.018;2023-03-01T07:21:52;1.02;;;0.80;;
42186;SDS011;27858;51.414;0.018;2023-03-01T07:24:20;0.98;;;0.77;;
42186;SDS011;27858;51.414;0.018;2023-03-01T07:26:50;1.35;;;0.85;;
42186;SDS011;27858;51.414;0.018;2023-03-01T07:29:17;3.33;;;1.15;;
42186;SDS011;27858;51.414;0.018;2023-03-01T07:31:44;2.38;;;0.95;;
42186;SDS011;27858;51.414;0.018;2023-03-01T07:34:11;2.15;;;1.27;;
42186;SDS011;27858;51.414;0.018;2023-03-01T07:36:38;2.72;;;0.70;;
42186;SDS011;27858;51.414;0.018;2023-03-01T07:39:05;2.60;;;1.25;;
42186;SDS011;27858;51.414;0.018;2023-03-01T07:41:32;1.67;;;1.08;;
42186;SDS011;27858;51.414;0.018;2023-03-01T07:43:59;0.70;;;0.70;;
42186;SDS011;27858;51.414;0.018;2023-03-01T07:46:26;1.10;;;0.70;;
42186;SDS011;27858;51.414;0.018;2023-03-01T07:48:53;1.52;;;0.60;;
42186;SDS011;27858;51.414;0.018;2023-03-01T07:51:19;2.17;;;0.82;;
42186;SDS011;27858;51.414;0.018;2023-03-01T07:53:47;1.73;;;0.63;;
42186;SDS011;27858;51.414;0.018;2023-03-01T07:56:15;9.32;;;1.77;;
42186;SDS011;27858;51.414;0.018;2023-03-01T07:58:45;2.33;;;1.40;;
42186;SDS011;27858;51.414;0.018;2023-03-01T08:01:16;4.30;;;0.73;;
42186;SDS011;27858;51.414;0.018;2023-03-01T08:03:44;1.65;;;0.73;;
42186;SDS011;27858;51.414;0.018;2023-03-01T08:06:12;1.40;;;0.68;;
42186;SDS011;27858;51.414;0.018;2023-03-01T08:08:40;1.00;;;0.93;;
42186;SDS011;27858;51.414;0.018;2023-03-01T08:11:07;3.38;;;1.10;;
42186;SDS011;27858;51.414;0.018;2023-03-01T08:13:36;2.10;;;0.93;;
42186;SDS011;27858;51.414;0.018;2023-03-01T08:16:12;1.02;;;0.77;;
42186;SDS011;27858;51.414;0.018;2023-03-01T08:18:41;2.08;;;1.02;;
42186;SDS011;27858;51.414;0.018;2023-03-01T08:21:10;1.17;;;0.80;;
42186;SDS011;27858;51.414;0.018;2023-03-01T08:23:39;1.92;;;1.00;;
42186;SDS011;27858;51.414;0.018;2023-03-01T08:26:10;2.92;;;1.13;;
42186;SDS011;27858;51.414;0.018;2023-03-01T08:28:38;6.00;;;1.27;;
42186;SDS011;27858;51.414;0.018;2023-03-01T08:31:28;2.20;;;1.08;;
42186;SDS011;27858;51.414;0.018;2023-03-01T08:33:56;0.93;;;0.60;;
42186;SDS011;27858;51.414;0.018;2023-03-01T08:36:25;2.80;;;0.60;;
42186;SDS011;27858;51.414;0.018;2023-03-01T08:38:54;2.72;;;1.05;;
42186;SDS011;27858;51.414;0.018;2023-03-01T08:41:21;1.15;;;0.70;;
42186;SDS011;27858;51.414;0.018;2023-03-01T08:43:49;0.82;;;0.80;;
42186;SDS011;27858;51.414;0.018;2023-03-01T08:46:16;2.63;;;0.80;;
42186;SDS011;27858;51.414;0.018;2023-03-01T08:48:43;1.85;;;1.13;;
42186;SDS011;27858;51.414;0.018;2023-03-01T08:51:11;2.30;;;0.68;;
42186;SDS011;27858;51.414;0.018;2023-03-01T08:53:39;3.72;;;1.45;;
42186;SDS011;27858;51.414;0.018;2023-03-01T08:56:06;2.42;;;0.70;;
42186;SDS011;27858;51.414;0.018;2023-03-01T08:58:33;1.60;;;0.90;;
42186;SDS011;27858;51.414;0.018;2023-03-01T09:01:00;2.88;;;1.83;;
42186;SDS011;27858;51.414;0.018;2023-03-01T09:03:32;1.00;;;0.70;;
42186;SDS011;27858;51.414;0.018;2023-03-01T09:06:00;3.45;;;1.00;;
42186;SDS011;27858;51.414;0.018;2023-03-01T09:08:27;3.10;;;0.70;;
42186;SDS011;27858;51.414;0.018;2023-03-01T09:10:55;2.03;;;1.15;;
42186;SDS011;27858;51.414;0.018;2023-03-01T09:13:22;0.95;;;0.82;;
42186;SDS011;27858;51.414;0.018;2023-03-01T09:15:51;1.25;;;0.70;;
42186;SDS011;27858;51.414;0.018;2023-03-01T09:18:18;1.35;;;0.60;;
42186;SDS011;27858;51.414;0.018;2023-03-01T09:20:44;3.20;;;0.65;;
42186;SDS011;27858;51.414;0.018;2023-03-01T09:23:11;1.45;;;0.70;;
42186;SDS011;27858;51.414;0.018;2023-03-01T09:25:38;2.28;;;1.10;;
42186;SDS011;27858;51.414;0.018;2023-03-01T09:28:04;4.00;;;0.82;;
42186;SDS011;27858;51.414;0.018;2023-03-01T09:30:31;2.05;;;0.90;;
42186;SDS011;27858;51.414;0.018;2023-03-01T09:32:58;1.15;;;1.05;;
42186;SDS011;27858;51.414;0.018;2023-03-01T09:35:25;2.08;;;0.90;;
42186;SDS011;27858;51.414;0.018;2023-03-01T09:37:52;1.10;;;0.60;;
42186;SDS011;27858;51.414;0.018;2023-03-01T09:40:20;1.42;;;0.68;;
42186;SDS011;27858;51.414;0.018;2023-03-01T09:45:29;1.30;;;0.90;;
42186;SDS011;27858;51.414;0.018;2023-03-01T09:48:02;6.53;;;1.50;;
42186;SDS011;27858;51.414;0.018;2023-03-01T09:50:39;2.13;;;1.05;;
42186;SDS011;27858;51.414;0.018;2023-03-01T09:53:42;1.77;;;0.95;;
42186;SDS011;27858;51.414;0.018;2023-03-01T10:01:20;1.65;;;0.80;;
42186;SDS011;27858;51.414;0.018;2023-03-01T10:06:36;1.88;;;0.88;;
42186;SDS011;27858;51.414;0.018;2023-03-01T10:09:07;1.60;;;0.63;;
42186;SDS011;27858;51.414;0.018;2023-03-01T10:11:39;3.33;;;1.23;;
42186;SDS011;27858;51.414;0.018;2023-03-01T10:17:02;1.55;;;1.02;;
42186;SDS011;27858;51.414;0.018;2023-03-01T10:19:49;3.65;;;0.73;;
42186;SDS011;27858;51.414;0.018;2023-03-01T10:22:18;1.60;;;0.70;;
42186;SDS011;27858;51.414;0.018;2023-03-01T10:24:51;3.47;;;1.10;;
42186;SDS011;27858;51.414;0.018;2023-03-01T10:27:26;1.98;;;0.68;;
42186;SDS011;27858;51.414;0.018;2023-03-01T10:32:39;5.72;;;1.42;;
42186;SDS011;27858;51.414;0.018;2023-03-01T10:35:19;2.22;;;0.65;;
42186;SDS011;27858;51.414;0.018;2023-03-01T10:37:57;4.15;;;0.70;;
42186;SDS011;27858;51.414;0.018;2023-03-01T10:40:32;0.85;;;0.57;;
42186;SDS011;27858;51.414;0.018;2023-03-01T10:43:01;1.33;;;0.55;;
42186;SDS011;27858;51.414;0.018;2023-03-01T10:50:40;1.13;;;0.47;;
42186;SDS011;27858;51.414;0.018;2023-03-01T10:53:34;1.27;;;0.70;;
42186;SDS011;27858;51.414;0.018;2023-03-01T10:56:08;0.50;;;0.30;;
42186;SDS011;27858;51.414;0.018;2023-03-01T10:58:37;3.08;;;0.60;;
42186;SDS011;27858;51.414;0.018;2023-03-01T11:01:06;1.67;;;0.63;;
42186;SDS011;27858;51.414;0.018;2023-03-01T11:06:32;2.22;;;0.55;;
42186;SDS011;27858;51.414;0.018;2023-03-01T11:09:18;1.70;;;0.63;;
42186;SDS011;27858;51.414;0.018;2023-03-01T11:11:54;3.35;;;0.50;;
42186;SDS011;27858;51.414;0.018;2023-03-01T11:19:28;5.13;;;0.70;;
42186;SDS011;27858;51.414;0.018;2023-03-01T11:24:38;2.65;;;0.77;;
42186;SDS011;27858;51.414;0.018;2023-03-01T11:27:36;2.88;;;0.40;;
42186;SDS011;27858;51.414;0.018;2023-03-01T11:32:40;1.80;;;0.47;;
42186;SDS011;27858;51.414;0.018;2023-03-01T11:35:35;5.63;;;1.27;;
42186;SDS011;27858;51.414;0.018;2023-03-01T11:38:16;3.22;;;0.50;;
42186;SDS011;27858;51.414;0.018;2023-03-01T11:43:49;5.90;;;0.70;;
42186;SDS011;27858;51.414;0.018;2023-03-01T11:52:02;6.22;;;0.75;;
42186;SDS011;27858;51.414;0.018;2023-03-01T12:08:15;7.88;;;0.85;;
42186;SDS011;27858;51.414;0.018;2023-03-01T12:21:59;4.22;;;1.00;;
42186;SDS011;27858;51.414;0.018;2023-03-01T12:35:39;3.13;;;0.80;;
42186;SDS011;27858;51.414;0.018;2023-03-01T12:43:22;1.38;;;0.60;;
42186;SDS011;27858;51.414;0.018;2023-03-01T12:49:13;3.35;;;0.60;;
42186;SDS011;27858;51.414;0.018;2023-03-01T12:52:02;5.57;;;1.08;;
42186;SDS011;27858;51.414;0.018;2023-03-01T12:54:38;5.30;;;0.95;;
42186;SDS011;27858;51.414;0.018;2023-03-01T12:57:16;3.00;;;1.23;;
42186;SDS011;27858;51.414;0.018;2023-03-01T13:02:45;2.22;;;0.80;;
42186;SDS011;27858;51.414;0.018;2023-03-01T13:08:29;2.53;;;0.82;;
42186;SDS011;27858;51.414;0.018;2023-03-01T13:11:05;1.17;;;0.98;;
42186;SDS011;27858;51.414;0.018;2023-03-01T13:13:41;1.40;;;0.63;;
42186;SDS011;27858;51.414;0.018;2023-03-01T13:19:06;2.42;;;0.93;;
42186;SDS011;27858;51.414;0.018;2023-03-01T13:21:41;5.88;;;0.50;;
42186;SDS011;27858;51.414;0.018;2023-03-01T13:29:44;1.15;;;1.00;;
42186;SDS011;27858;51.414;0.018;2023-03-01T13:37:37;1.95;;;1.23;;
42186;SDS011;27858;51.414;0.018;2023-03-01T13:40:05;2.55;;;0.82;;
42186;SDS011;27858;51.414;0.018;2023-03-01T13:42:43;1.98;;;0.47;;
42186;SDS011;27858;51.414;0.018;2023-03-01T13:50:46;2.90;;;1.20;;
42186;SDS011;27858;51.414;0.018;2023-03-01T13:53:18;5.20;;;0.88;;
42186;SDS011;27858;51.414;0.018;2023-03-01T13:55:50;4.40;;;1.10;;
42186;SDS011;27858;51.414;0.018;2023-03-01T13:58:22;7.78;;;1.38;;
42186;SDS011;27858;51.414;0.018;2023-03-01T14:00:58;8.10;;;1.20;;
42186;SDS011;27858;51.414;0.018;2023-03-01T14:03:30;7.50;;;2.15;;
42186;SDS011;27858;51.414;0.018;2023-03-01T14:06:09;5.20;;;1.08;;
42186;SDS011;27858;51.414;0.018;2023-03-01T14:08:46;2.72;;;0.95;;
42186;SDS011;27858;51.414;0.018;2023-03-01T14:11:35;4.70;;;1.00;;
42186;SDS011;27858;51.414;0.018;2023-03-01T14:14:17;7.65;;;1.92;;
42186;SDS011;27858;51.414;0.018;2023-03-01T14:20:01;2.38;;;0.80;;
42186;SDS011;27858;51.414;0.018;2023-03-01T14:22:35;3.25;;;0.82;;
42186;SDS011;27858;51.414;0.018;2023-03-01T14:25:14;3.17;;;1.20;;
42186;SDS011;27858;51.414;0.018;2023-03-01T14:27:42;3.63;;;1.17;;
42186;SDS011;27858;51.414;0.018;2023-03-01T14:30:20;3.75;;;1.33;;
42186;SDS011;27858;51.414;0.018;2023-03-01T14:32:58;0.70;;;0.50;;
42186;SDS011;27858;51.414;0.018;2023-03-01T14:35:27;2.47;;;0.50;;
42186;SDS011;27858;51.414;0.018;2023-03-01T14:38:00;1.23;;;0.95;;
42186;SDS011;27858;51.414;0.018;2023-03-01T14:40:28;1.00;;;0.85;;
42186;SDS011;27858;51.414;0.018;2023-03-01T14:42:58;1.23;;;0.65;;
42186;SDS011;27858;51.414;0.018;2023-03-01T14:45:28;1.58;;;1.02;;
42186;SDS011;27858;51.414;0.018;2023-03-01T14:48:00;2.88;;;1.10;;
42186;SDS011;27858;51.414;0.018;2023-03-01T14:50:34;2.50;;;0.80;;
42186;SDS011;27858;51.414;0.018;2023-03-01T14:53:06;1.85;;;0.88;;
42186;SDS011;27858;51.414;0.018;2023-03-01T14:55:42;3.30;;;0.98;;
42186;SDS011;27858;51.414;0.018;2023-03-01T14:58:13;1.52;;;0.60;;
42186;SDS011;27858;51.414;0.018;2023-03-01T15:00:52;14.85;;;1.85;;
42186;SDS011;27858;51.414;0.018;2023-03-01T15:03:25;3.63;;;1.00;;
42186;SDS011;27858;51.414;0.018;2023-03-01T15:05:59;4.25;;;0.95;;
42186;SDS011;27858;51.414;0.018;2023-03-01T15:08:27;6.03;;;1.38;;
42186;SDS011;27858;51.414;0.018;2023-03-01T15:13:39;2.58;;;1.20;;
42186;SDS011;27858;51.414;0.018;2023-03-01T15:16:15;2.85;;;0.80;;
42186;SDS011;27858;51.414;0.018;2023-03-01T15:18:46;3.53;;;1.23;;
42186;SDS011;27858;51.414;0.018;2023-03-01T15:21:20;19.48;;;1.77;;
42186;SDS011;27858;51.414;0.018;2023-03-01T15:23:50;6.70;;;1.40;;
42186;SDS011;27858;51.414;0.018;2023-03-01T15:26:56;9.23;;;1.08;;
42186;SDS011;27858;51.414;0.018;2023-03-01T15:29:28;6.32;;;1.20;;
42186;SDS011;27858;51.414;0.018;2023-03-01T15:32:04;4.63;;;1.20;;
42186;SDS011;27858;51.414;0.018;2023-03-01T15:34:33;11.43;;;1.95;;
42186;SDS011;27858;51.414;0.018;2023-03-01T15:37:35;21.95;;;1.30;;
42186;SDS011;27858;51.414;0.018;2023-03-01T15:40:19;1.75;;;0.90;;
42186;SDS011;27858;51.414;0.018;2023-03-01T15:42:47;7.28;;;1.30;;
42186;SDS011;27858;51.414;0.018;2023-03-01T15:47:46;4.13;;;1.52;;
42186;SDS011;27858;51.414;0.018;2023-03-01T15:53:04;4.20;;;1.38;;
42186;SDS011;27858;51.414;0.018;2023-03-01T15:55:34;12.27;;;1.27;;
42186;SDS011;27858;51.414;0.018;2023-03-01T16:00:35;4.63;;;1.10;;
42186;SDS011;27858;51.414;0.018;2023-03-01T16:03:02;9.27;;;1.52;;
42186;SDS011;27858;51.414;0.018;2023-03-01T16:05:33;2.45;;;1.40;;
42186;SDS011;27858;51.414;0.018;2023-03-01T16:08:00;11.70;;;2.13;;
42186;SDS011;27858;51.414;0.018;2023-03-01T16:10:28;5.38;;;1.42;;
42186;SDS011;27858;51.414;0.018;2023-03-01T16:12:56;16.70;;;1.92;;
42186;SDS011;27858;51.414;0.018;2023-03-01T16:15:24;5.57;;;1.75;;
42186;SDS011;27858;51.414;0.018;2023-03-01T16:17:56;1.90;;;0.80;;
42186;SDS011;27858;51.414;0.018;2023-03-01T16:20:27;2.08;;;0.70;;
42186;SDS011;27858;51.414;0.018;2023-03-01T16:22:59;6.60;;;1.50;;
42186;SDS011;27858;51.414;0.018;2023-03-01T16:25:27;20.95;;;2.17;;
42186;SDS011;27858;51.414;0.018;2023-03-01T16:27:55;6.20;;;0.95;;
42186;SDS011;27858;51.414;0.018;2023-03-01T16:30:24;21.52;;;2.33;;
42186;SDS011;27858;51.414;0.018;2023-03-01T16:32:51;8.38;;;2.15;;
42186;SDS011;27858;51.414;0.018;2023-03-01T16:35:19;11.32;;;1.70;;
42186;SDS011;27858;51.414;0.018;2023-03-01T16:37:48;10.13;;;1.67;;
42186;SDS011;27858;51.414;0.018;2023-03-01T16:40:22;4.40;;;1.38;;
42186;SDS011;27858;51.414;0.018;2023-03-01T16:42:52;4.38;;;1.10;;
42186;SDS011;27858;51.414;0.018;2023-03-01T16:45:19;6.28;;;1.58;;
42186;SDS011;27858;51.414;0.018;2023-03-01T16:47:51;3.20;;;1.10;;
42186;SDS011;27858;51.414;0.018;2023-03-01T16:50:21;5.15;;;1.30;;
42186;SDS011;27858;51.414;0.018;2023-03-01T16:52:48;2.85;;;1.48;;
42186;SDS011;27858;51.414;0.018;2023-03-01T16:55:15;6.05;;;1.30;;
42186;SDS011;27858;51.414;0.018;2023-03-01T16:57:42;7.18;;;1.05;;
42186;SDS011;27858;51.414;0.018;2023-03-01T17:00:10;3.88;;;1.20;;
42186;SDS011;27858;51.414;0.018;2023-03-01T17:02:39;10.55;;;2.20;;
42186;SDS011;27858;51.414;0.018;2023-03-01T17:05:07;10.13;;;1.67;;
42186;SDS011;27858;51.414;0.018;2023-03-01T17:07:36;2.80;;;1.10;;
42186;SDS011;27858;51.414;0.018;2023-03-01T17:10:03;4.65;;;1.80;;
42186;SDS011;27858;51.414;0.018;2023-03-01T17:12:34;4.15;;;1.08;;
42186;SDS011;27858;51.414;0.018;2023-03-01T17:15:01;5.35;;;0.90;;
42186;SDS011;27858;51.414;0.018;2023-03-01T17:17:29;2.92;;;0.90;;
42186;SDS011;27858;51.414;0.018;2023-03-01T17:19:56;4.78;;;1.08;;
42186;SDS011;27858;51.414;0.018;2023-03-01T17:22:23;4.90;;;1.50;;
42186;SDS011;27858;51.414;0.018;2023-03-01T17:24:50;2.58;;;1.10;;
42186;SDS011;27858;51.414;0.018;2023-03-01T17:27:17;3.30;;;1.10;;
42186;SDS011;27858;51.414;0.018;2023-03-01T17:29:44;2.17;;;0.98;;
42186;SDS011;27858;51.414;0.018;2023-03-01T17:32:11;4.72;;;1.70;;
42186;SDS011;27858;51.414;0.018;2023-03-01T17:34:38;3.55;;;0.85;;
42186;SDS011;27858;51.414;0.018;2023-03-01T17:37:05;3.13;;;1.20;;
42186;SDS011;27858;51.414;0.018;2023-03-01T17:39:32;8.60;;;1.65;;
42186;SDS011;27858;51.414;0.018;2023-03-01T17:42:02;5.95;;;1.48;;
42186;SDS011;27858;51.414;0.018;2023-03-01T17:44:30;3.25;;;0.98;;
42186;SDS011;27858;51.414;0.018;2023-03-01T17:47:00;4.30;;;1.10;;
42186;SDS011;27858;51.414;0.018;2023-03-01T17:49:27;4.00;;;1.13;;
42186;SDS011;27858;51.414;0.018;2023-03-01T17:51:54;7.55;;;1.55;;
42186;SDS011;27858;51.414;0.018;2023-03-01T17:54:22;5.20;;;1.20;;
42186;SDS011;27858;51.414;0.018;2023-03-01T17:56:49;6.85;;;1.20;;
42186;SDS011;27858;51.414;0.018;2023-03-01T17:59:16;3.20;;;1.20;;
42186;SDS011;27858;51.414;0.018;2023-03-01T18:01:44;3.42;;;0.95;;
42186;SDS011;27858;51.414;0.018;2023-03-01T18:04:11;6.00;;;1.38;;
42186;SDS011;27858;51.414;0.018;2023-03-01T18:06:38;5.30;;;1.50;;
42186;SDS011;27858;51.414;0.018;2023-03-01T18:09:06;6.25;;;1.75;;
42186;SDS011;27858;51.414;0.018;2023-03-01T18:11:33;7.28;;;1.52;;
42186;SDS011;27858;51.414;0.018;2023-03-01T18:14:02;2.47;;;1.20;;
42186;SDS011;27858;51.414;0.018;2023-03-01T18:16:29;11.63;;;2.13;;
42186;SDS011;27858;51.414;0.018;2023-03-01T18:18:59;6.88;;;1.33;;
42186;SDS011;27858;51.414;0.018;2023-03-01T18:21:27;4.28;;;1.42;;
42186;SDS011;27858;51.414;0.018;2023-03-01T18:23:55;5.55;;;1.33;;
42186;SDS011;27858;51.414;0.018;2023-03-01T18:26:24;9.05;;;3.10;;
42186;SDS011;27858;51.414;0.018;2023-03-01T18:28:53;5.85;;;2.00;;
42186;SDS011;27858;51.414;0.018;2023-03-01T18:31:23;94.40;;;37.17;;
42186;SDS011;27858;51.414;0.018;2023-03-01T18:33:51;127.22;;;46.25;;
42186;SDS011;27858;51.414;0.018;2023-03-01T18:36:23;22.83;;;9.05;;
42186;SDS011;27858;51.414;0.018;2023-03-01T18:38:52;21.85;;;7.78;;
42186;SDS011;27858;51.414;0.018;2023-03-01T18:41:22;8.35;;;2.75;;
42186;SDS011;27858;51.414;0.018;2023-03-01T18:43:51;17.45;;;6.78;;
42186;SDS011;27858;51.414;0.018;2023-03-01T18:46:18;12.40;;;3.95;;
42186;SDS011;27858;51.414;0.018;2023-03-01T18:48:48;12.13;;;4.95;;
42186;SDS011;27858;51.414;0.018;2023-03-01T18:51:17;7.28;;;4.07;;
42186;SDS011;27858;51.414;0.018;2023-03-01T18:53:47;10.35;;;3.60;;
42186;SDS011;27858;51.414;0.018;2023-03-01T18:56:14;10.25;;;4.35;;
42186;SDS011;27858;51.414;0.018;2023-03-01T18:58:41;8.90;;;3.88;;
42186;SDS011;27858;51.414;0.018;2023-03-01T19:01:19;23.05;;;10.45;;
42186;SDS011;27858;51.414;0.018;2023-03-01T19:03:47;5.45;;;2.33;;
42186;SDS011;27858;51.414;0.018;2023-03-01T19:06:14;9.38;;;3.15;;
42186;SDS011;27858;51.414;0.018;2023-03-01T19:08:42;12.32;;;2.50;;
42186;SDS011;27858;51.414;0.018;2023-03-01T19:11:09;3.33;;;1.52;;
42186;SDS011;27858;51.414;0.018;2023-03-01T19:13:38;4.05;;;1.25;;
42186;SDS011;27858;51.414;0.018;2023-03-01T19:16:13;3.63;;;1.17;;
42186;SDS011;27858;51.414;0.018;2023-03-01T19:18:44;4.10;;;1.10;;
42186;SDS011;27858;51.414;0.018;2023-03-01T19:21:22;3.45;;;1.58;;
42186;SDS011;27858;51.414;0.018;2023-03-01T19:23:53;10.02;;;2.30;;
42186;SDS011;27858;51.414;0.018;2023-03-01T19:26:22;3.60;;;1.52;;
42186;SDS011;27858;51.414;0.018;2023-03-01T19:28:54;4.20;;;1.77;;
42186;SDS011;27858;51.414;0.018;2023-03-01T19:31:23;3.70;;;1.50;;
42186;SDS011;27858;51.414;0.018;2023-03-01T19:33:53;1.27;;;0.80;;
42186;SDS011;27858;51.414;0.018;2023-03-01T19:39:05;1.45;;;1.35;;
42186;SDS011;27858;51.414;0.018;2023-03-01T19:41:33;3.13;;;0.77;;
42186;SDS011;27858;51.414;0.018;2023-03-01T19:44:01;3.42;;;0.90;;
42186;SDS011;27858;51.414;0.018;2023-03-01T19:46:31;4.45;;;0.85;;
42186;SDS011;27858;51.414;0.018;2023-03-01T19:49:00;3.45;;;1.15;;
42186;SDS011;27858;51.414;0.018;2023-03-01T19:51:30;3.70;;;1.85;;
42186;SDS011;27858;51.414;0.018;2023-03-01T19:54:03;3.45;;;1.08;;
42186;SDS011;27858;51.414;0.018;2023-03-01T19:56:32;5.10;;;0.82;;
42186;SDS011;27858;51.414;0.018;2023-03-01T19:59:00;3.63;;;1.35;;
42186;SDS011;27858;51.414;0.018;2023-03-01T20:01:30;1.77;;;0.55;;
42186;SDS011;27858;51.414;0.018;2023-03-01T20:04:00;2.10;;;0.70;;
42186;SDS011;27858;51.414;0.018;2023-03-01T20:06:28;2.50;;;0.93;;
42186;SDS011;27858;51.414;0.018;2023-03-01T20:08:56;1.40;;;0.90;;
42186;SDS011;27858;51.414;0.018;2023-03-01T20:11:27;1.00;;;0.82;;
42186;SDS011;27858;51.414;0.018;2023-03-01T20:13:55;1.33;;;0.85;;
42186;SDS011;27858;51.414;0.018;2023-03-01T20:16:22;4.20;;;1.77;;
42186;SDS011;27858;51.414;0.018;2023-03-01T20:18:52;2.30;;;1.40;;
42186;SDS011;27858;51.414;0.018;2023-03-01T20:21:19;2.33;;;1.08;;
42186;SDS011;27858;51.414;0.018;2023-03-01T20:23:49;1.55;;;1.10;;
42186;SDS011;27858;51.414;0.018;2023-03-01T20:26:17;2.15;;;0.73;;
42186;SDS011;27858;51.414;0.018;2023-03-01T20:28:46;1.85;;;1.15;;
42186;SDS011;27858;51.414;0.018;2023-03-01T20:31:16;1.42;;;0.73;;
42186;SDS011;27858;51.414;0.018;2023-03-01T20:33:46;4.03;;;1.20;;
42186;SDS011;27858;51.414;0.018;2023-03-01T20:36:14;2.55;;;1.20;;
42186;SDS011;27858;51.414;0.018;2023-03-01T20:38:41;2.47;;;1.67;;
42186;SDS011;27858;51.414;0.018;2023-03-01T20:41:09;1.55;;;0.90;;
42186;SDS011;27858;51.414;0.018;2023-03-01T20:43:39;1.33;;;0.80;;
42186;SDS011;27858;51.414;0.018;2023-03-01T20:46:08;3.20;;;0.80;;
42186;SDS011;27858;51.414;0.018;2023-03-01T20:48:40;1.58;;;1.00;;
42186;SDS011;27858;51.414;0.018;2023-03-01T20:51:08;0.93;;;0.68;;
42186;SDS011;27858;51.414;0.018;2023-03-01T20:53:37;3.22;;;1.08;;
42186;SDS011;27858;51.414;0.018;2023-03-01T20:56:07;2.42;;;0.68;;
42186;SDS011;27858;51.414;0.018;2023-03-01T20:58:36;2.65;;;1.13;;
42186;SDS011;27858;51.414;0.018;2023-03-01T21:01:04;0.88;;;0.60;;
42186;SDS011;27858;51.414;0.018;2023-03-01T21:03:31;0.95;;;0.68;;
42186;SDS011;27858;51.414;0.018;2023-03-01T21:05:59;5.18;;;0.57;;
42186;SDS011;27858;51.414;0.018;2023-03-01T21:08:28;2.03;;;0.80;;
42186;SDS011;27858;51.414;0.018;2023-03-01T21:10:55;1.75;;;0.77;;
42186;SDS011;27858;51.414;0.018;2023-03-01T21:13:23;1.20;;;1.10;;
42186;SDS011;27858;51.414;0.018;2023-03-01T21:16:01;1.17;;;0.55;;